CheckWX is a tool to help pilots better visualize weather data.  It is not intended as a substitute for an official pre-flight weather briefing.

08:31:38 UTC

KSPA METAR
Spartanburg Downtown Memorial Airport
Spartanburg, South Carolina, USA
Current

17 mins ago

KSPA 220815Z AUTO 05005KT 10SM -RA OVC005 13/13 A3015 RMK AO2 P0001
Observed
Feb-22 @ 08:15 UTC
Wind
  • 050° at 5 KTS
Visibility
10 SM
Flight Rules
IFR
Conditions
Light Rain
Cloud Levels
  • Overcast at 500' AGL
Temperature
13°C / 55°F
Dewpoint
13°C / 55°F
Humidity
100%
Altimeter
30.15" Hg
Pressure
1021.02 hPa
Current Rain
0.01"
Previous

37 mins ago

KSPA 220755Z AUTO 06004KT 10SM DZ OVC005 13/13 A3014 RMK AO2 P0019
Observed
Feb-22 @ 07:55 UTC
Wind
  • 060° at 4 KTS
Visibility
10 SM
Flight Rules
IFR
Conditions
Drizzle
Cloud Levels
  • Overcast at 500' AGL
Temperature
13°C / 55°F
Dewpoint
13°C / 55°F
Humidity
100%
Altimeter
30.14" Hg
Pressure
1020.62 hPa
Current Rain
0.19"
Previous

57 mins ago

KSPA 220735Z AUTO 04010KT 10SM RA OVC005 13/13 A3014 RMK AO2 P0018
Observed
Feb-22 @ 07:35 UTC
Wind
  • 040° at 10 KTS
Visibility
10 SM
Flight Rules
IFR
Conditions
Rain
Cloud Levels
  • Overcast at 500' AGL
Temperature
13°C / 55°F
Dewpoint
13°C / 55°F
Humidity
100%
Altimeter
30.14" Hg
Pressure
1020.62 hPa
Current Rain
0.18"